Time;durP1;ratioP1;P1;durP2;ratioP2;P2;SDS_P1;SDS_P2;PMS_P1;PMS_P2;Temp;Humidity;BMP_temperature;BMP_pressure;BME280_temperature;BME280_humidity;BME280_pressure;Samples;Min_cycle;Max_cycle;Signal;HPM_P1;HPM_P2
2021/07/05 00:00:17;;;;;;;12.30;5.90;;;;;;;20.41;83.01;99793.64;1918717;74;21808;-62
2021/07/05 00:02:46;;;;;;;10.00;5.25;;;;;;;20.39;83.09;99792.95;1918430;74;21078;-64
2021/07/05 00:05:15;;;;;;;9.48;5.25;;;;;;;20.37;83.04;99791.42;1918551;75;21031;-62
2021/07/05 00:07:48;;;;;;;9.33;5.22;;;;;;;20.34;82.99;99779.17;1918424;75;21536;-62
2021/07/05 00:10:19;;;;;;;8.95;5.30;;;;;;;20.32;82.80;99778.48;1918992;75;21074;-62
2021/07/05 00:12:49;;;;;;;15.28;5.72;;;;;;;20.30;82.63;99781.80;1918694;75;21055;-62
2021/07/05 00:15:20;;;;;;;8.60;5.60;;;;;;;20.29;82.55;99768.10;1918422;75;21136;-63
2021/07/05 00:17:52;;;;;;;14.20;5.78;;;;;;;20.30;82.66;99768.94;1918437;75;21039;-62
2021/07/05 00:20:21;;;;;;;12.07;4.60;;;;;;;20.28;82.69;99755.71;1918584;74;21050;-62
2021/07/05 00:22:51;;;;;;;7.22;4.92;;;;;;;20.25;82.60;99755.99;1918491;75;21043;-62
2021/07/05 00:25:20;;;;;;;8.95;4.28;;;;;;;20.23;82.60;99749.48;1918446;75;21442;-62
2021/07/05 00:27:49;;;;;;;6.28;4.12;;;;;;;20.23;82.63;99748.15;1916747;75;21063;-63
2021/07/05 00:30:19;;;;;;;10.90;4.33;;;;;;;20.22;82.53;99745.62;1900894;75;21024;-62
2021/07/05 00:32:49;;;;;;;8.88;3.83;;;;;;;20.20;82.39;99745.75;1903810;75;20983;-62
2021/07/05 00:35:18;;;;;;;5.97;3.70;;;;;;;20.18;82.34;99740.22;1903845;75;20988;-62
2021/07/05 00:38:07;;;;;;;6.97;3.92;;;;;;;20.18;82.12;99746.91;1903934;75;21450;-62
2021/07/05 00:40:36;;;;;;;7.70;3.52;;;;;;;20.21;81.97;99749.27;1911134;75;21114;-60
2021/07/05 00:43:05;;;;;;;6.55;3.30;;;;;;;20.25;81.67;99748.84;1912305;74;21051;-60
2021/07/05 00:45:34;;;;;;;6.10;2.90;;;;;;;20.30;81.21;99744.88;1912203;75;21478;-60
2021/07/05 00:48:04;;;;;;;10.10;3.10;;;;;;;20.36;80.96;99745.14;1912310;75;21552;-60
2021/07/05 00:50:33;;;;;;;7.65;2.95;;;;;;;20.39;80.76;99752.84;1912326;74;21097;-60
2021/07/05 00:53:04;;;;;;;7.80;3.27;;;;;;;20.41;80.63;99750.03;1912272;75;21196;-60
2021/07/05 00:55:33;;;;;;;6.58;3.70;;;;;;;20.41;80.50;99757.55;1912377;75;21031;-60
2021/07/05 00:58:03;;;;;;;7.05;3.60;;;;;;;20.40;80.47;99762.56;1912281;75;21497;-62
2021/07/05 01:00:32;;;;;;;7.65;4.35;;;;;;;20.37;80.52;99757.50;1912430;74;21129;-63
2021/07/05 01:03:01;;;;;;;8.20;4.33;;;;;;;20.36;80.58;99762.99;1912282;75;21067;-63
2021/07/05 01:05:30;;;;;;;9.28;4.78;;;;;;;20.33;80.62;99760.13;1912287;74;21031;-63
2021/07/05 01:07:59;;;;;;;11.65;4.12;;;;;;;20.32;80.72;99762.44;1912383;75;21031;-63
2021/07/05 01:10:29;;;;;;;8.00;4.22;;;;;;;20.29;81.10;99759.22;1912431;75;21031;-60
2021/07/05 01:12:59;;;;;;;10.10;5.15;;;;;;;20.24;81.34;99754.33;1912438;74;21035;-60
2021/07/05 01:15:30;;;;;;;9.10;4.95;;;;;;;20.21;81.55;99754.61;1912362;74;21043;-60
2021/07/05 01:18:00;;;;;;;8.60;5.08;;;;;;;20.16;81.77;99762.22;1912277;75;21471;-61
2021/07/05 01:20:31;;;;;;;4.78;3.67;;;;;;;20.14;81.80;99757.51;1912406;75;21028;-60
2021/07/05 01:23:00;;;;;;;9.55;4.00;;;;;;;20.11;81.86;99757.32;1912395;75;21059;-60
2021/07/05 01:25:31;;;;;;;6.00;3.62;;;;;;;20.10;81.81;99753.45;1912287;74;21564;-60
2021/07/05 01:28:00;;;;;;;6.87;3.22;;;;;;;20.10;81.60;99757.46;1912407;75;21532;-61
2021/07/05 01:30:29;;;;;;;9.83;4.35;;;;;;;20.10;81.45;99749.44;1912442;75;21509;-61
2021/07/05 01:33:01;;;;;;;8.35;3.10;;;;;;;20.11;81.31;99751.97;1912597;75;21486;-61
2021/07/05 01:35:30;;;;;;;9.25;4.22;;;;;;;20.10;81.32;99741.42;1912488;74;21069;-61
2021/07/05 01:37:59;;;;;;;11.40;5.62;;;;;;;20.11;81.26;99748.47;1912644;75;21510;-61
2021/07/05 01:40:29;;;;;;;10.45;5.25;;;;;;;20.12;81.29;99737.64;1912756;75;21482;-61
2021/07/05 01:42:59;;;;;;;9.18;5.12;;;;;;;20.12;81.40;99744.32;1912853;75;21035;-61
2021/07/05 01:45:31;;;;;;;10.60;4.87;;;;;;;20.11;81.50;99745.80;1907762;75;21036;-61
2021/07/05 01:48:01;;;;;;;9.38;5.08;;;;;;;20.11;81.57;99745.80;1900733;75;21061;-61
2021/07/05 01:50:31;;;;;;;10.15;4.70;;;;;;;20.09;81.66;99744.60;1900779;75;21455;-61
2021/07/05 01:53:00;;;;;;;9.80;4.72;;;;;;;20.08;81.70;99743.41;1900841;75;21028;-61
2021/07/05 01:55:33;;;;;;;9.13;4.62;;;;;;;20.09;81.81;99745.11;1900644;75;21032;-62
2021/07/05 01:58:04;;;;;;;11.75;5.40;;;;;;;20.09;81.83;99745.11;1901106;75;21087;-61
2021/07/05 02:00:35;;;;;;;8.13;4.03;;;;;;;20.09;81.81;99750.45;1900385;75;21016;-61
2021/07/05 02:03:05;;;;;;;11.88;4.15;;;;;;;20.06;81.84;99752.90;1900752;75;21478;-61
2021/07/05 02:05:35;;;;;;;7.00;4.55;;;;;;;20.05;81.84;99760.59;1900802;75;21110;-61
2021/07/05 02:08:06;;;;;;;12.00;4.80;;;;;;;20.05;81.80;99757.91;1900700;75;21034;-61
2021/07/05 02:10:37;;;;;;;13.03;4.85;;;;;;;20.04;81.80;99765.06;1900817;75;21044;-61
2021/07/05 02:13:14;;;;;;;9.78;3.90;;;;;;;20.04;81.77;99757.05;1900735;75;21094;-61
2021/07/05 02:15:43;;;;;;;8.65;4.25;;;;;;;20.04;81.71;99763.73;1900736;75;21513;-61
2021/07/05 02:18:12;;;;;;;9.88;4.70;;;;;;;20.06;81.60;99760.91;1900636;75;21424;-62
2021/07/05 02:20:42;;;;;;;11.22;5.33;;;;;;;20.06;81.61;99761.75;1900695;75;21151;-61
2021/07/05 02:23:13;;;;;;;13.05;4.72;;;;;;;20.09;81.69;99753.12;1900725;75;21168;-61
2021/07/05 02:25:43;;;;;;;9.50;4.70;;;;;;;20.12;81.89;99760.83;1900700;75;21028;-61
2021/07/05 02:28:15;;;;;;;12.50;5.42;;;;;;;20.14;81.92;99756.17;1900809;75;21109;-61
2021/07/05 02:30:47;;;;;;;12.50;4.20;;;;;;;20.13;82.05;99752.67;1900645;75;21059;-61
2021/07/05 02:33:17;;;;;;;6.15;3.98;;;;;;;20.15;82.01;99751.19;1900702;75;21024;-61
2021/07/05 02:35:46;;;;;;;13.45;4.60;;;;;;;20.17;81.94;99742.53;1899587;75;21141;-61
2021/07/05 02:38:15;;;;;;;9.68;5.80;;;;;;;20.19;81.95;99748.56;1900908;75;21047;-61
2021/07/05 02:40:49;;;;;;;12.23;5.70;;;;;;;20.20;81.92;99747.09;1878100;75;21542;-61
2021/07/05 02:43:19;;;;;;;9.43;4.95;;;;;;;20.24;81.87;99754.33;1860494;77;21040;-63
2021/07/05 02:45:50;;;;;;;14.18;5.05;;;;;;;20.28;81.75;99752.20;1861169;77;21016;-61
2021/07/05 02:48:22;;;;;;;9.63;5.30;;;;;;;20.30;81.65;99759.08;1861181;77;21064;-61
2021/07/05 02:50:54;;;;;;;8.75;4.58;;;;;;;20.32;81.55;99759.77;1861132;77;21463;-61
2021/07/05 02:53:24;;;;;;;7.97;3.90;;;;;;;20.35;81.50;99763.49;1861356;77;21596;-61
2021/07/05 02:55:53;;;;;;;8.13;4.28;;;;;;;20.37;81.44;99762.84;1860948;77;21044;-62
2021/07/05 02:58:22;;;;;;;11.38;4.80;;;;;;;20.38;81.39;99767.22;1861224;77;21141;-61
2021/07/05 03:00:53;;;;;;;8.43;4.58;;;;;;;20.41;81.40;99776.27;1861255;77;21012;-61
2021/07/05 03:03:23;;;;;;;9.63;4.15;;;;;;;20.42;81.36;99780.63;1861163;77;21133;-61
2021/07/05 03:05:52;;;;;;;10.80;4.42;;;;;;;20.46;81.25;99783.02;1861059;77;21545;-61
2021/07/05 03:08:21;;;;;;;11.90;6.08;;;;;;;20.47;81.17;99783.36;1861040;77;21507;-62
2021/07/05 03:10:50;;;;;;;17.82;6.47;;;;;;;20.47;81.13;99778.84;1861120;77;21074;-61
2021/07/05 03:13:20;;;;;;;10.05;5.80;;;;;;;20.51;81.14;99775.38;1861108;77;21459;-61
2021/07/05 03:15:52;;;;;;;10.63;6.65;;;;;;;20.54;81.13;99779.11;1861144;77;21564;-61
2021/07/05 03:18:21;;;;;;;11.73;5.60;;;;;;;20.57;81.13;99780.16;1861182;76;21059;-61
2021/07/05 03:20:51;;;;;;;10.70;5.05;;;;;;;20.62;81.16;99777.42;1861144;77;21439;-62
2021/07/05 03:23:21;;;;;;;10.30;4.45;;;;;;;20.66;81.11;99780.64;1861170;77;21056;-61
2021/07/05 03:25:50;;;;;;;12.00;5.03;;;;;;;20.70;81.08;99775.33;1861142;77;21060;-61
2021/07/05 03:28:20;;;;;;;10.05;5.55;;;;;;;20.75;81.02;99779.75;1861101;77;21548;-61
2021/07/05 03:30:50;;;;;;;12.37;5.90;;;;;;;20.79;81.04;99774.94;1861116;77;21493;-61
2021/07/05 03:33:19;;;;;;;9.65;4.75;;;;;;;20.83;81.14;99770.97;1861196;77;21036;-62
2021/07/05 03:35:50;;;;;;;11.83;5.83;;;;;;;20.86;81.24;99764.47;1861110;77;21031;-61
2021/07/05 03:38:20;;;;;;;11.68;5.25;;;;;;;20.91;81.23;99764.86;1861115;77;21529;-61
2021/07/05 03:40:50;;;;;;;11.38;4.08;;;;;;;20.97;81.12;99760.23;1874949;75;21152;-62
2021/07/05 03:43:19;;;;;;;10.80;4.15;;;;;;;21.02;80.84;99753.94;1912664;75;21047;-62
2021/07/05 03:45:48;;;;;;;11.75;4.17;;;;;;;21.06;80.57;99757.99;1903103;75;21034;-62
2021/07/05 03:48:17;;;;;;;10.85;4.60;;;;;;;21.11;80.36;99759.72;1900757;75;21032;-62
2021/07/05 03:50:46;;;;;;;9.53;4.10;;;;;;;21.17;80.12;99759.61;1900842;75;21015;-62
2021/07/05 03:53:15;;;;;;;14.47;4.40;;;;;;;21.21;79.94;99756.49;1900827;75;21028;-61
2021/07/05 03:55:44;;;;;;;8.00;4.00;;;;;;;21.26;79.80;99754.68;1900682;75;21129;-62
2021/07/05 03:58:16;;;;;;;8.48;4.20;;;;;;;21.32;79.61;99752.75;1900674;75;21197;-62
2021/07/05 04:00:43;;;;;;;11.73;3.85;;;;;;;21.42;79.32;99752.66;1900554;75;21115;-62
2021/07/05 04:03:12;;;;;;;8.38;4.00;;;;;;;21.48;79.10;99756.08;1900913;75;21044;-62
2021/07/05 04:05:41;;;;;;;7.70;3.40;;;;;;;21.57;78.83;99757.83;1900655;75;21129;-62
2021/07/05 04:08:09;;;;;;;7.03;3.40;;;;;;;21.69;78.54;99758.92;1900866;75;21462;-62
2021/07/05 04:10:39;;;;;;;7.12;3.70;;;;;;;21.77;78.17;99759.00;1900619;75;21051;-61
2021/07/05 04:13:10;;;;;;;6.83;3.40;;;;;;;21.88;77.86;99761.42;1900443;75;21483;-62
2021/07/05 04:15:38;;;;;;;14.98;3.92;;;;;;;22.00;77.54;99763.84;1900945;75;21039;-61
2021/07/05 04:18:08;;;;;;;9.43;3.92;;;;;;;22.10;77.10;99765.92;1900661;75;21051;-62
2021/07/05 04:20:37;;;;;;;9.05;3.87;;;;;;;22.22;76.77;99766.48;1900676;75;21124;-62
2021/07/05 04:23:06;;;;;;;9.75;3.77;;;;;;;22.33;76.50;99768.41;1900657;75;21036;-61
2021/07/05 04:25:34;;;;;;;13.93;4.25;;;;;;;22.41;76.18;99760.07;1900550;75;21549;-62
2021/07/05 04:28:04;;;;;;;7.70;3.00;;;;;;;22.50;75.85;99763.13;1900648;75;21172;-61
2021/07/05 04:30:36;;;;;;;11.95;3.60;;;;;;;22.58;75.61;99753.80;1900659;75;21165;-62
2021/07/05 04:33:05;;;;;;;7.33;3.42;;;;;;;22.64;75.39;99751.80;1900657;75;21172;-63
2021/07/05 04:35:34;;;;;;;7.87;2.70;;;;;;;22.68;74.99;99746.44;1900842;75;21039;-63
2021/07/05 04:38:04;;;;;;;13.25;3.33;;;;;;;22.73;74.58;99752.16;1900543;75;21615;-63
2021/07/05 04:40:36;;;;;;;7.50;3.35;;;;;;;22.78;74.51;99751.69;1900620;75;21043;-63
2021/07/05 04:43:06;;;;;;;4.78;2.40;;;;;;;22.85;74.23;99757.22;1917208;75;21509;-63
2021/07/05 04:45:36;;;;;;;9.50;2.70;;;;;;;22.92;74.00;99746.17;1913868;75;21047;-63
2021/07/05 04:48:07;;;;;;;17.87;3.98;;;;;;;23.02;73.65;99746.88;1912577;75;21039;-62
2021/07/05 04:50:36;;;;;;;11.65;3.58;;;;;;;23.09;73.37;99747.94;1912634;75;21015;-63
2021/07/05 04:53:05;;;;;;;11.70;3.20;;;;;;;23.21;73.34;99744.93;1912626;75;21050;-63
2021/07/05 04:55:34;;;;;;;14.20;4.40;;;;;;;23.27;73.13;99753.66;1912609;75;21046;-62
2021/07/05 04:58:03;;;;;;;13.45;4.53;;;;;;;23.30;72.87;99744.77;1912600;75;21482;-62
2021/07/05 05:00:34;;;;;;;13.78;3.70;;;;;;;23.39;72.89;99742.93;1912632;75;21050;-62
2021/07/05 05:03:05;;;;;;;6.62;2.65;;;;;;;23.44;72.88;99748.65;1912464;75;21060;-63
2021/07/05 05:05:34;;;;;;;7.12;2.25;;;;;;;23.43;72.75;99749.64;1912700;75;21105;-62
2021/07/05 05:08:04;;;;;;;6.90;2.20;;;;;;;23.46;72.68;99742.60;1912577;75;21631;-62
2021/07/05 05:10:32;;;;;;;5.97;2.95;;;;;;;23.52;72.57;99737.06;1912578;75;21110;-62
2021/07/05 05:13:01;;;;;;;8.73;3.62;;;;;;;23.56;72.71;99737.56;1912585;75;21067;-63
2021/07/05 05:15:30;;;;;;;7.50;2.20;;;;;;;23.63;73.06;99739.91;1912517;75;21043;-63
2021/07/05 05:17:59;;;;;;;6.12;2.50;;;;;;;23.69;72.86;99739.23;1912592;75;21035;-63
2021/07/05 05:20:28;;;;;;;5.53;2.15;;;;;;;23.76;72.62;99742.92;1912623;75;21035;-62
2021/07/05 05:22:57;;;;;;;5.60;2.33;;;;;;;23.82;72.47;99732.02;1912824;75;21478;-62
2021/07/05 05:25:26;;;;;;;7.40;2.58;;;;;;;23.88;72.15;99732.19;1912589;75;21067;-62
2021/07/05 05:27:55;;;;;;;11.30;2.47;;;;;;;24.03;72.04;99731.47;1912505;75;21505;-63
2021/07/05 05:30:25;;;;;;;8.23;2.77;;;;;;;24.11;71.72;99732.80;1912817;75;21547;-62
2021/07/05 05:32:56;;;;;;;7.40;2.98;;;;;;;24.22;71.54;99736.47;1912684;75;21144;-62
2021/07/05 05:35:26;;;;;;;14.60;3.05;;;;;;;24.35;71.18;99731.88;1912600;75;21063;-63
2021/07/05 05:37:57;;;;;;;13.53;3.65;;;;;;;24.51;70.97;99729.61;1912679;75;21015;-62
2021/07/05 05:40:27;;;;;;;16.67;4.62;;;;;;;24.73;70.78;99729.89;1912517;75;21030;-63
2021/07/05 05:42:56;;;;;;;14.07;4.35;;;;;;;24.98;70.43;99722.00;1912771;75;21144;-62
2021/07/05 05:45:25;;;;;;;8.30;3.37;;;;;;;25.27;69.80;99725.89;1912867;75;21059;-62
2021/07/05 05:47:54;;;;;;;10.20;3.25;;;;;;;25.39;68.85;99733.02;1912890;75;21513;-63
2021/07/05 05:50:22;;;;;;;11.38;3.80;;;;;;;25.40;68.18;99728.80;1913121;75;21109;-62
2021/07/05 05:52:51;;;;;;;6.97;2.47;;;;;;;25.60;67.95;99729.63;1900952;75;21039;-62
2021/07/05 05:55:20;;;;;;;8.48;2.33;;;;;;;25.78;67.30;99723.91;1900896;75;21579;-62
2021/07/05 05:57:50;;;;;;;9.78;2.15;;;;;;;26.16;67.25;99724.72;1900702;75;21487;-62
2021/07/05 06:00:23;;;;;;;10.32;2.85;;;;;;;26.67;66.75;99725.32;1900697;75;21512;-62
2021/07/05 06:02:52;;;;;;;5.50;2.25;;;;;;;26.96;65.12;99722.20;1900877;75;21494;-63
2021/07/05 06:05:22;;;;;;;7.80;2.05;;;;;;;27.16;64.77;99725.11;1900846;75;21028;-62
2021/07/05 06:07:51;;;;;;;6.75;1.90;;;;;;;27.23;64.11;99723.31;1900618;75;21198;-62
2021/07/05 06:10:22;;;;;;;8.90;2.10;;;;;;;27.22;63.43;99721.63;1900733;75;21458;-62
2021/07/05 06:12:52;;;;;;;4.55;1.80;;;;;;;27.26;62.58;99728.38;1900818;75;21540;-62
2021/07/05 06:15:23;;;;;;;5.50;1.87;;;;;;;27.64;61.93;99721.30;1900839;75;21035;-63
2021/07/05 06:17:52;;;;;;;2.67;1.50;;;;;;;27.97;61.56;99723.45;1900703;75;21093;-62
2021/07/05 06:20:22;;;;;;;6.28;1.70;;;;;;;27.91;60.67;99731.84;1900754;75;21625;-62
2021/07/05 06:22:55;;;;;;;6.17;1.92;;;;;;;27.70;60.78;99726.44;1900720;75;21106;-62
2021/07/05 06:25:23;;;;;;;;;;;;;;;27.65;60.51;99718.93;1903538;75;21071;-62
2021/07/05 06:27:52;;;;;;;5.62;2.12;;;;;;;27.58;60.29;99719.39;1900688;75;20107;-63
2021/07/05 06:30:21;;;;;;;5.37;2.10;;;;;;;27.28;60.71;99723.61;1900673;75;21051;-62
2021/07/05 06:32:49;;;;;;;5.45;2.42;;;;;;;27.37;60.66;99727.52;1900611;75;21121;-62
2021/07/05 06:35:18;;;;;;;5.35;2.52;;;;;;;27.31;60.42;99720.50;1900690;75;21008;-62
2021/07/05 06:37:46;;;;;;;4.20;1.90;;;;;;;27.40;60.66;99717.67;1900903;75;21113;-62
2021/07/05 06:40:15;;;;;;;6.92;2.35;;;;;;;27.70;59.79;99719.19;1900808;75;21087;-62
2021/07/05 06:42:44;;;;;;;5.05;1.50;;;;;;;28.27;59.59;99713.73;1903499;75;21470;-63
2021/07/05 06:45:13;;;;;;;3.10;1.50;;;;;;;28.82;57.84;99716.48;1915862;75;21097;-62
2021/07/05 06:47:42;;;;;;;5.95;1.72;;;;;;;29.15;56.20;99714.41;1912689;75;21481;-62
2021/07/05 06:50:12;;;;;;;4.17;1.65;;;;;;;29.46;55.17;99720.58;1912641;75;21047;-62
2021/07/05 06:52:40;;;;;;;4.72;1.62;;;;;;;29.87;54.07;99728.21;1912657;75;21055;-62
2021/07/05 06:55:10;;;;;;;8.60;2.05;;;;;;;30.32;53.23;99729.16;1912777;75;21007;-62
2021/07/05 06:57:39;;;;;;;5.10;1.90;;;;;;;30.90;51.77;99732.91;1912571;75;21035;-63
2021/07/05 07:00:19;;;;;;;5.85;1.57;;;;;;;31.34;50.49;99724.39;1912662;75;21106;-62
2021/07/05 07:02:49;;;;;;;5.10;1.80;;;;;;;31.73;49.55;99716.98;1912443;75;21568;-62
2021/07/05 07:05:20;;;;;;;4.17;1.42;;;;;;;32.20;48.56;99724.69;1912735;75;21031;-62
2021/07/05 07:07:51;;;;;;;5.33;1.70;;;;;;;32.43;47.11;99718.56;1901553;75;21078;-62
2021/07/05 07:10:21;;;;;;;6.93;2.00;;;;;;;31.97;47.10;99713.91;1880085;76;21066;-62
2021/07/05 07:12:52;;;;;;;6.15;1.80;;;;;;;31.10;47.59;99720.59;1879978;76;21129;-62
2021/07/05 07:15:25;;;;;;;7.00;2.65;;;;;;;30.69;48.67;99716.38;1879921;76;21035;-62
2021/07/05 07:18:03;;;;;;;6.50;1.77;;;;;;;31.24;49.36;99716.70;1880160;76;21070;-62
2021/07/05 07:20:29;;;;;;;8.73;2.17;;;;;;;31.94;48.87;99721.16;1879454;76;21023;-62
2021/07/05 07:22:58;;;;;;;3.92;1.77;;;;;;;32.19;47.29;99718.42;1880040;76;21038;-62
2021/07/05 07:25:27;;;;;;;3.67;1.55;;;;;;;32.29;46.69;99715.98;1880021;76;21051;-62
2021/07/05 07:27:56;;;;;;;3.65;1.32;;;;;;;32.58;45.33;99717.66;1879921;76;21062;-61
2021/07/05 07:30:25;;;;;;;4.95;1.00;;;;;;;32.60;44.50;99721.53;1880090;76;21548;-62
2021/07/05 07:32:54;;;;;;;2.33;1.27;;;;;;;32.39;44.15;99714.61;1880142;76;21470;-62
2021/07/05 07:35:22;;;;;;;2.58;1.02;;;;;;;31.94;44.14;99719.26;1879819;76;21109;-62
2021/07/05 07:37:52;;;;;;;4.97;1.50;;;;;;;32.04;44.14;99715.22;1880030;76;21104;-62
2021/07/05 07:40:34;;;;;;;4.08;1.15;;;;;;;32.28;44.09;99717.59;1879903;76;21042;-62
2021/07/05 07:43:00;;;;;;;3.17;1.57;;;;;;;32.43;43.57;99714.48;1879663;76;21051;-62
2021/07/05 07:45:29;;;;;;;3.87;1.67;;;;;;;32.43;43.88;99713.95;1879839;76;21086;-63
2021/07/05 07:47:57;;;;;;;5.85;1.50;;;;;;;31.98;44.78;99716.09;1880025;76;21078;-62
2021/07/05 07:50:26;;;;;;;6.17;1.82;;;;;;;31.42;45.04;99718.66;1879991;76;21075;-62
2021/07/05 07:52:56;;;;;;;6.85;2.20;;;;;;;31.52;45.75;99716.33;1879909;76;21256;-62
2021/07/05 07:55:26;;;;;;;6.08;1.67;;;;;;;31.92;45.90;99713.21;1880030;76;21133;-62
2021/07/05 07:57:54;;;;;;;7.37;1.95;;;;;;;31.81;45.80;99703.60;1879897;76;21557;-62
2021/07/05 08:00:23;;;;;;;5.65;1.45;;;;;;;31.27;46.09;99707.29;1879934;76;21198;-63
2021/07/05 08:02:52;;;;;;;3.62;1.40;;;;;;;30.92;46.67;99711.27;1879927;76;21047;-62
2021/07/05 08:05:21;;;;;;;2.67;1.50;;;;;;;31.50;46.27;99713.00;1880021;76;21113;-62
2021/07/05 08:07:50;;;;;;;4.50;1.27;;;;;;;31.96;45.79;99707.33;1879920;76;21043;-62
2021/07/05 08:10:19;;;;;;;6.70;1.70;;;;;;;31.64;46.14;99704.71;1879971;76;21113;-62
2021/07/05 08:12:49;;;;;;;3.92;1.70;;;;;;;31.22;46.34;99697.05;1879933;76;21027;-62
2021/07/05 08:15:18;;;;;;;4.37;1.72;;;;;;;31.19;46.81;99700.23;1879963;76;21494;-62
2021/07/05 08:17:47;;;;;;;5.10;1.50;;;;;;;30.51;47.87;99703.53;1879872;76;21611;-62
2021/07/05 08:20:26;;;;;;;5.58;2.05;;;;;;;29.71;49.31;99695.53;1879939;76;21006;-62
2021/07/05 08:22:47;;;;;;;10.10;1.98;;;;;;;29.03;51.03;99694.66;1877375;76;21125;-62
2021/07/05 08:25:16;;;;;;;6.10;2.05;;;;;;;28.50;52.45;99703.95;1879820;76;21192;-62
2021/07/05 08:27:44;;;;;;;4.95;1.80;;;;;;;28.09;53.47;99709.69;1880132;76;21469;-62
2021/07/05 08:30:13;;;;;;;8.38;2.52;;;;;;;27.72;54.98;99721.17;1880097;76;21023;-62
2021/07/05 08:32:42;;;;;;;9.38;2.72;;;;;;;27.37;57.00;99737.84;1880053;76;21113;-61
2021/07/05 08:35:11;;;;;;;12.10;3.10;;;;;;;26.89;60.17;99738.84;1879910;76;21074;-61
2021/07/05 08:37:41;;;;;;;12.90;3.42;;;;;;;26.35;61.84;99744.07;1879796;76;21026;-62
2021/07/05 08:40:12;;;;;;;9.95;2.92;;;;;;;25.49;65.27;99748.94;1879898;76;21035;-61
2021/07/05 08:42:41;;;;;;;12.37;3.12;;;;;;;24.77;69.37;99747.36;1880092;76;21081;-62
2021/07/05 08:45:11;;;;;;;8.13;2.62;;;;;;;24.25;71.51;99750.06;1879922;76;21160;-62
2021/07/05 08:47:43;;;;;;;8.75;3.58;;;;;;;24.02;72.35;99756.69;1879922;76;21027;-61
2021/07/05 08:50:14;;;;;;;13.15;4.78;;;;;;;23.95;72.88;99755.69;1879777;76;21106;-61
2021/07/05 08:52:44;;;;;;;23.80;5.80;;;;;;;23.80;74.05;99761.75;1879994;76;21071;-62
2021/07/05 08:55:16;;;;;;;12.03;4.80;;;;;;;23.64;74.22;99757.19;1879898;76;21124;-61
2021/07/05 08:57:45;;;;;;;12.15;4.53;;;;;;;23.53;74.88;99759.38;1879898;76;21121;-61
2021/07/05 09:00:20;;;;;;;14.95;4.87;;;;;;;23.46;75.02;99756.03;1880044;76;21120;-61
2021/07/05 09:02:50;;;;;;;10.75;4.20;;;;;;;23.41;75.21;99751.66;1879060;76;21485;-61
2021/07/05 09:05:19;;;;;;;7.97;4.08;;;;;;;23.47;75.43;99742.92;1879897;76;21042;-62
2021/07/05 09:08:06;;;;;;;9.35;4.45;;;;;;;23.55;75.24;99735.36;1879848;76;21141;-61
2021/07/05 09:10:44;;;;;;;10.53;4.80;;;;;;;23.61;75.10;99736.53;1879818;76;21226;-61
2021/07/05 09:13:22;;;;;;;9.18;4.70;;;;;;;23.77;75.02;99735.69;1877923;76;21140;-62
2021/07/05 09:15:56;;;;;;;9.03;4.75;;;;;;;23.96;75.19;99734.50;1879818;76;21132;-61
2021/07/05 09:18:50;;;;;;;11.08;4.50;;;;;;;24.21;75.10;99746.88;1879838;76;21450;-61
2021/07/05 09:21:19;;;;;;;15.32;4.97;;;;;;;24.40;74.81;99742.11;1879531;76;21214;-61
2021/07/05 09:23:50;;;;;;;6.78;4.50;;;;;;;24.53;74.63;99745.14;1879743;75;21096;-62
2021/07/05 09:26:21;;;;;;;6.17;3.25;;;;;;;24.57;74.93;99742.42;1879830;76;21035;-62
2021/07/05 09:28:52;;;;;;;4.80;2.90;;;;;;;24.68;75.06;99747.93;1879936;76;21555;-61
2021/07/05 09:31:45;;;;;;;4.62;2.60;;;;;;;24.75;74.75;99749.39;1880004;76;21071;-62
2021/07/05 09:34:24;;;;;;;2.90;1.70;;;;;;;24.87;74.42;99753.38;1878646;75;21470;-62
2021/07/05 09:36:55;;;;;;;8.63;5.90;;;;;;;24.97;74.03;99754.00;1879953;76;21038;-61
2021/07/05 09:39:25;;;;;;;13.95;8.28;;;;;;;25.18;73.60;99750.66;1879957;76;21044;-62
2021/07/05 09:41:55;;;;;;;5.75;3.90;;;;;;;25.28;72.97;99752.31;1879940;76;21015;-62
2021/07/05 09:44:27;;;;;;;7.28;3.17;;;;;;;25.24;72.09;99754.52;1879845;76;21062;-62
2021/07/05 09:46:58;;;;;;;3.70;2.10;;;;;;;25.08;71.52;99762.67;1890550;75;21086;-62
2021/07/05 09:49:29;;;;;;;3.22;1.92;;;;;;;24.91;71.43;99764.11;1879947;76;21553;-62
2021/07/05 09:52:10;;;;;;;2.80;1.60;;;;;;;24.80;71.65;99767.20;1879908;76;21063;-61
2021/07/05 09:54:42;;;;;;;1.85;1.50;;;;;;;24.72;71.99;99773.47;1879926;76;21062;-61
2021/07/05 09:57:35;;;;;;;2.47;1.50;;;;;;;24.60;72.19;99774.34;1879863;76;21051;-62
2021/07/05 10:00:08;;;;;;;2.33;1.77;;;;;;;24.47;72.16;99787.01;1879030;76;21051;-62
2021/07/05 10:03:07;;;;;;;3.50;2.27;;;;;;;24.31;72.46;99793.78;1880086;76;21148;-62
2021/07/05 10:05:44;;;;;;;3.33;2.50;;;;;;;24.12;72.92;99793.63;1880009;76;21192;-62
2021/07/05 10:08:11;;;;;;;4.92;2.80;;;;;;;24.07;73.36;99802.73;1879456;76;21023;-62
2021/07/05 10:10:43;;;;;;;6.58;3.90;;;;;;;23.97;73.84;99794.83;1880139;76;21178;-62
2021/07/05 10:13:14;;;;;;;5.20;3.12;;;;;;;23.88;74.27;99794.02;1879933;76;21152;-61
2021/07/05 10:15:43;;;;;;;6.40;4.00;;;;;;;23.77;74.87;99788.09;1879669;76;21121;-62
2021/07/05 10:18:12;;;;;;;7.87;3.60;;;;;;;23.61;75.63;99776.83;1879903;76;21470;-62
2021/07/05 10:20:44;;;;;;;10.40;4.60;;;;;;;23.55;76.13;99777.00;1879935;76;21039;-62
2021/07/05 10:23:15;;;;;;;6.17;3.60;;;;;;;23.42;76.21;99781.52;1880145;76;21136;-61
2021/07/05 10:25:47;;;;;;;5.90;3.12;;;;;;;23.40;76.28;99782.20;1880081;76;21121;-61
2021/07/05 10:28:17;;;;;;;7.70;3.55;;;;;;;23.24;76.17;99781.70;1879824;76;21019;-62
2021/07/05 10:30:51;;;;;;;5.45;2.55;;;;;;;22.99;76.40;99794.69;1879997;76;21117;-62
2021/07/05 10:33:20;;;;;;;5.83;3.12;;;;;;;22.91;76.49;99794.17;1879894;76;21563;-61
2021/07/05 10:35:52;;;;;;;4.60;2.92;;;;;;;22.82;76.19;99785.75;1879901;76;21495;-62
2021/07/05 10:38:23;;;;;;;5.05;2.87;;;;;;;22.74;76.34;99790.08;1879870;76;21047;-61
2021/07/05 10:40:55;;;;;;;7.33;3.25;;;;;;;22.74;76.46;99787.87;1879796;76;21043;-61
2021/07/05 10:43:27;;;;;;;5.10;2.80;;;;;;;22.74;76.61;99789.22;1879889;76;21046;-62
2021/07/05 10:45:59;;;;;;;4.95;2.62;;;;;;;22.79;76.49;99795.45;1877076;76;21094;-62
2021/07/05 10:48:42;;;;;;;3.90;2.80;;;;;;;22.73;76.54;99787.05;1879922;75;21114;-61
2021/07/05 10:51:17;;;;;;;5.47;3.02;;;;;;;22.73;77.10;99787.55;1879789;76;21023;-62
2021/07/05 10:53:46;;;;;;;8.23;3.98;;;;;;;22.79;77.24;99784.72;1879476;76;21545;-62
2021/07/05 10:56:28;;;;;;;7.30;3.15;;;;;;;22.90;77.72;99784.42;1879915;76;21039;-61
2021/07/05 10:59:14;;;;;;;9.13;4.92;;;;;;;22.95;77.44;99783.44;1876324;76;21050;-61
2021/07/05 11:01:48;;;;;;;6.80;4.08;;;;;;;23.15;77.06;99779.14;1879983;76;21037;-62
2021/07/05 11:04:31;;;;;;;13.83;8.35;;;;;;;23.33;76.67;99775.81;1879924;76;21039;-61
2021/07/05 11:07:02;;;;;;;13.30;11.85;;;;;;;23.55;76.31;99770.28;1879926;76;21083;-61
2021/07/05 11:09:31;;;;;;;25.92;21.05;;;;;;;23.78;76.22;99766.43;1880254;75;21563;-61
2021/07/05 11:12:00;;;;;;;15.13;10.72;;;;;;;23.86;76.27;99772.33;1879759;76;21035;-63
2021/07/05 11:14:34;;;;;;;29.80;24.92;;;;;;;24.00;76.08;99766.78;1879912;76;21535;-61
2021/07/05 11:17:11;;;;;;;22.05;16.55;;;;;;;24.08;75.93;99761.38;1880433;75;21132;-61
2021/07/05 11:19:49;;;;;;;14.13;9.90;;;;;;;24.21;75.91;99763.53;1880353;75;21087;-61
2021/07/05 11:22:38;;;;;;;7.17;5.22;;;;;;;24.38;75.74;99758.94;1880168;75;21090;-62
2021/07/05 11:25:11;;;;;;;11.90;6.70;;;;;;;24.52;75.61;99760.94;1879170;76;21678;-62
2021/07/05 11:27:52;;;;;;;13.83;10.00;;;;;;;24.49;75.42;99753.17;1878077;76;21055;-62
2021/07/05 11:30:38;;;;;;;8.93;6.55;;;;;;;24.54;75.13;99758.91;1879971;76;21079;-62
2021/07/05 11:33:16;;;;;;;7.25;4.25;;;;;;;24.58;74.37;99758.88;1879855;76;21105;-62
2021/07/05 11:36:00;;;;;;;5.30;3.70;;;;;;;24.70;74.02;99767.91;1879969;76;21055;-61
2021/07/05 11:38:37;;;;;;;5.65;3.42;;;;;;;24.81;73.81;99771.08;1879090;75;21450;-61
2021/07/05 11:41:15;;;;;;;4.25;2.33;;;;;;;24.82;73.19;99776.77;1879836;76;21022;-63
2021/07/05 11:44:08;;;;;;;5.53;2.45;;;;;;;24.91;72.57;99774.89;1880022;75;21039;-62
2021/07/05 11:46:38;;;;;;;3.67;2.12;;;;;;;24.81;71.47;99780.50;1879184;75;21099;-62
2021/07/05 11:49:14;;;;;;;3.25;2.17;;;;;;;24.73;70.57;99781.03;1868378;76;21129;-62